sensor_id;sensor_type;location;lat;lon;timestamp;P1;durP1;ratioP1;P2;durP2;ratioP2
359;SDS011;168;48.872;9.226;2022-10-16T00:00:26;2.70;;;2.50;;
359;SDS011;168;48.872;9.226;2022-10-16T00:02:55;2.30;;;2.20;;
359;SDS011;168;48.872;9.226;2022-10-16T00:05:22;3.50;;;2.30;;
359;SDS011;168;48.872;9.226;2022-10-16T00:07:49;2.93;;;2.20;;
359;SDS011;168;48.872;9.226;2022-10-16T00:10:17;2.70;;;2.50;;
359;SDS011;168;48.872;9.226;2022-10-16T00:12:45;3.47;;;2.87;;
359;SDS011;168;48.872;9.226;2022-10-16T00:15:12;3.03;;;2.83;;
359;SDS011;168;48.872;9.226;2022-10-16T00:17:40;2.40;;;2.27;;
359;SDS011;168;48.872;9.226;2022-10-16T00:20:09;2.33;;;2.10;;
359;SDS011;168;48.872;9.226;2022-10-16T00:22:36;2.20;;;2.00;;
359;SDS011;168;48.872;9.226;2022-10-16T00:25:04;4.13;;;2.73;;
359;SDS011;168;48.872;9.226;2022-10-16T00:27:32;2.97;;;2.70;;
359;SDS011;168;48.872;9.226;2022-10-16T00:30:00;2.97;;;2.37;;
359;SDS011;168;48.872;9.226;2022-10-16T00:32:28;2.47;;;2.30;;
359;SDS011;168;48.872;9.226;2022-10-16T00:34:56;2.77;;;2.13;;
359;SDS011;168;48.872;9.226;2022-10-16T00:37:25;2.00;;;1.90;;
359;SDS011;168;48.872;9.226;2022-10-16T00:39:52;2.90;;;2.60;;
359;SDS011;168;48.872;9.226;2022-10-16T00:42:20;2.90;;;2.70;;
359;SDS011;168;48.872;9.226;2022-10-16T00:44:49;2.30;;;2.10;;
359;SDS011;168;48.872;9.226;2022-10-16T00:47:19;2.37;;;2.23;;
359;SDS011;168;48.872;9.226;2022-10-16T00:49:53;3.33;;;2.60;;
359;SDS011;168;48.872;9.226;2022-10-16T00:52:27;2.30;;;2.10;;
359;SDS011;168;48.872;9.226;2022-10-16T00:54:55;2.67;;;2.40;;
359;SDS011;168;48.872;9.226;2022-10-16T00:57:26;2.63;;;2.43;;
359;SDS011;168;48.872;9.226;2022-10-16T00:59:54;2.67;;;2.33;;
359;SDS011;168;48.872;9.226;2022-10-16T01:02:22;2.50;;;2.30;;
359;SDS011;168;48.872;9.226;2022-10-16T01:04:50;2.80;;;2.60;;
359;SDS011;168;48.872;9.226;2022-10-16T01:07:22;2.70;;;2.50;;
359;SDS011;168;48.872;9.226;2022-10-16T01:10:02;3.47;;;2.40;;
359;SDS011;168;48.872;9.226;2022-10-16T01:12:37;2.93;;;2.63;;
359;SDS011;168;48.872;9.226;2022-10-16T01:15:10;4.03;;;2.70;;
359;SDS011;168;48.872;9.226;2022-10-16T01:17:47;2.70;;;2.50;;
359;SDS011;168;48.872;9.226;2022-10-16T01:20:21;2.70;;;2.50;;
359;SDS011;168;48.872;9.226;2022-10-16T01:23:01;3.23;;;2.80;;
359;SDS011;168;48.872;9.226;2022-10-16T01:25:37;2.60;;;2.37;;
359;SDS011;168;48.872;9.226;2022-10-16T01:28:17;3.10;;;2.80;;
359;SDS011;168;48.872;9.226;2022-10-16T01:30:48;2.50;;;2.30;;
359;SDS011;168;48.872;9.226;2022-10-16T01:33:19;2.87;;;2.67;;
359;SDS011;168;48.872;9.226;2022-10-16T01:35:51;2.97;;;2.77;;
359;SDS011;168;48.872;9.226;2022-10-16T01:38:21;2.83;;;2.60;;
359;SDS011;168;48.872;9.226;2022-10-16T01:40:57;3.13;;;2.67;;
359;SDS011;168;48.872;9.226;2022-10-16T01:43:31;3.10;;;2.83;;
359;SDS011;168;48.872;9.226;2022-10-16T01:46:01;2.70;;;2.50;;
359;SDS011;168;48.872;9.226;2022-10-16T01:48:29;2.60;;;2.37;;
359;SDS011;168;48.872;9.226;2022-10-16T01:51:01;4.20;;;2.80;;
359;SDS011;168;48.872;9.226;2022-10-16T01:53:32;3.57;;;3.27;;
359;SDS011;168;48.872;9.226;2022-10-16T01:56:01;2.63;;;2.53;;
359;SDS011;168;48.872;9.226;2022-10-16T01:58:35;2.90;;;2.60;;
359;SDS011;168;48.872;9.226;2022-10-16T02:01:07;3.10;;;2.90;;
359;SDS011;168;48.872;9.226;2022-10-16T02:03:37;2.80;;;2.60;;
359;SDS011;168;48.872;9.226;2022-10-16T02:06:08;4.67;;;3.10;;
359;SDS011;168;48.872;9.226;2022-10-16T02:08:36;3.80;;;3.27;;
359;SDS011;168;48.872;9.226;2022-10-16T02:11:05;2.70;;;2.50;;
359;SDS011;168;48.872;9.226;2022-10-16T02:13:35;2.60;;;2.40;;
359;SDS011;168;48.872;9.226;2022-10-16T02:16:08;3.07;;;2.77;;
359;SDS011;168;48.872;9.226;2022-10-16T02:18:37;4.60;;;3.00;;
359;SDS011;168;48.872;9.226;2022-10-16T02:21:07;2.53;;;2.37;;
359;SDS011;168;48.872;9.226;2022-10-16T02:23:44;3.07;;;2.87;;
359;SDS011;168;48.872;9.226;2022-10-16T02:26:17;3.07;;;2.83;;
359;SDS011;168;48.872;9.226;2022-10-16T02:28:53;3.33;;;3.00;;
359;SDS011;168;48.872;9.226;2022-10-16T02:31:23;2.73;;;2.53;;
359;SDS011;168;48.872;9.226;2022-10-16T02:33:54;4.00;;;2.83;;
359;SDS011;168;48.872;9.226;2022-10-16T02:36:25;2.60;;;2.40;;
359;SDS011;168;48.872;9.226;2022-10-16T02:38:53;2.87;;;2.67;;
359;SDS011;168;48.872;9.226;2022-10-16T02:41:22;3.03;;;2.83;;
359;SDS011;168;48.872;9.226;2022-10-16T02:43:50;3.27;;;3.00;;
359;SDS011;168;48.872;9.226;2022-10-16T02:46:19;4.33;;;2.77;;
359;SDS011;168;48.872;9.226;2022-10-16T02:48:46;3.00;;;2.80;;
359;SDS011;168;48.872;9.226;2022-10-16T02:51:14;2.10;;;2.00;;
359;SDS011;168;48.872;9.226;2022-10-16T02:53:41;2.83;;;2.63;;
359;SDS011;168;48.872;9.226;2022-10-16T02:56:09;2.73;;;2.53;;
359;SDS011;168;48.872;9.226;2022-10-16T02:58:36;3.03;;;2.80;;
359;SDS011;168;48.872;9.226;2022-10-16T03:01:04;2.50;;;2.40;;
359;SDS011;168;48.872;9.226;2022-10-16T03:03:32;3.10;;;2.80;;
359;SDS011;168;48.872;9.226;2022-10-16T03:06:00;3.10;;;2.90;;
359;SDS011;168;48.872;9.226;2022-10-16T03:08:27;3.33;;;2.70;;
359;SDS011;168;48.872;9.226;2022-10-16T03:10:55;5.93;;;2.67;;
359;SDS011;168;48.872;9.226;2022-10-16T03:13:22;3.83;;;2.93;;
359;SDS011;168;48.872;9.226;2022-10-16T03:15:49;3.00;;;2.70;;
359;SDS011;168;48.872;9.226;2022-10-16T03:18:17;3.90;;;2.80;;
359;SDS011;168;48.872;9.226;2022-10-16T03:20:46;3.10;;;2.80;;
359;SDS011;168;48.872;9.226;2022-10-16T03:23:13;3.60;;;2.83;;
359;SDS011;168;48.872;9.226;2022-10-16T03:25:41;3.57;;;2.97;;
359;SDS011;168;48.872;9.226;2022-10-16T03:28:08;3.20;;;2.67;;
359;SDS011;168;48.872;9.226;2022-10-16T03:30:36;4.43;;;3.13;;
359;SDS011;168;48.872;9.226;2022-10-16T03:33:05;4.63;;;2.90;;
359;SDS011;168;48.872;9.226;2022-10-16T03:35:32;2.60;;;2.40;;
359;SDS011;168;48.872;9.226;2022-10-16T03:38:02;4.03;;;3.23;;
359;SDS011;168;48.872;9.226;2022-10-16T03:40:29;2.83;;;2.63;;
359;SDS011;168;48.872;9.226;2022-10-16T03:42:57;2.57;;;2.47;;
359;SDS011;168;48.872;9.226;2022-10-16T03:45:25;4.73;;;2.20;;
359;SDS011;168;48.872;9.226;2022-10-16T03:47:53;3.63;;;3.33;;
359;SDS011;168;48.872;9.226;2022-10-16T03:50:20;7.40;;;3.63;;
359;SDS011;168;48.872;9.226;2022-10-16T03:52:48;3.87;;;2.63;;
359;SDS011;168;48.872;9.226;2022-10-16T03:55:16;2.80;;;2.60;;
359;SDS011;168;48.872;9.226;2022-10-16T03:57:44;3.27;;;2.73;;
359;SDS011;168;48.872;9.226;2022-10-16T04:00:11;3.40;;;3.10;;
359;SDS011;168;48.872;9.226;2022-10-16T04:02:39;2.90;;;2.60;;
359;SDS011;168;48.872;9.226;2022-10-16T04:05:07;3.00;;;2.70;;
359;SDS011;168;48.872;9.226;2022-10-16T04:07:35;3.73;;;3.07;;
359;SDS011;168;48.872;9.226;2022-10-16T04:10:04;5.00;;;3.00;;
359;SDS011;168;48.872;9.226;2022-10-16T04:12:34;3.40;;;3.07;;
359;SDS011;168;48.872;9.226;2022-10-16T04:15:01;3.50;;;3.30;;
359;SDS011;168;48.872;9.226;2022-10-16T04:17:29;3.00;;;2.80;;
359;SDS011;168;48.872;9.226;2022-10-16T04:19:56;4.93;;;2.70;;
359;SDS011;168;48.872;9.226;2022-10-16T04:22:24;5.20;;;2.93;;
359;SDS011;168;48.872;9.226;2022-10-16T04:24:51;3.30;;;3.00;;
359;SDS011;168;48.872;9.226;2022-10-16T04:27:21;3.40;;;3.20;;
359;SDS011;168;48.872;9.226;2022-10-16T04:29:51;3.50;;;3.20;;
359;SDS011;168;48.872;9.226;2022-10-16T04:32:18;5.57;;;3.20;;
359;SDS011;168;48.872;9.226;2022-10-16T04:34:45;3.10;;;2.90;;
359;SDS011;168;48.872;9.226;2022-10-16T04:37:14;3.50;;;3.20;;
359;SDS011;168;48.872;9.226;2022-10-16T04:39:42;3.10;;;2.90;;
359;SDS011;168;48.872;9.226;2022-10-16T04:42:10;3.00;;;2.80;;
359;SDS011;168;48.872;9.226;2022-10-16T04:44:38;4.63;;;3.23;;
359;SDS011;168;48.872;9.226;2022-10-16T04:47:06;3.57;;;2.73;;
359;SDS011;168;48.872;9.226;2022-10-16T04:49:34;3.60;;;3.30;;
359;SDS011;168;48.872;9.226;2022-10-16T04:52:01;3.67;;;3.37;;
359;SDS011;168;48.872;9.226;2022-10-16T04:54:29;2.97;;;2.77;;
359;SDS011;168;48.872;9.226;2022-10-16T04:56:56;3.50;;;3.20;;
359;SDS011;168;48.872;9.226;2022-10-16T04:59:27;5.43;;;2.90;;
359;SDS011;168;48.872;9.226;2022-10-16T05:02:11;3.03;;;2.67;;
359;SDS011;168;48.872;9.226;2022-10-16T05:04:48;3.17;;;2.77;;
359;SDS011;168;48.872;9.226;2022-10-16T05:07:15;3.03;;;2.60;;
359;SDS011;168;48.872;9.226;2022-10-16T05:09:43;3.13;;;2.80;;
359;SDS011;168;48.872;9.226;2022-10-16T05:12:10;2.63;;;2.43;;
359;SDS011;168;48.872;9.226;2022-10-16T05:14:38;2.70;;;2.50;;
359;SDS011;168;48.872;9.226;2022-10-16T05:17:05;8.07;;;2.80;;
359;SDS011;168;48.872;9.226;2022-10-16T05:19:35;2.77;;;2.57;;
359;SDS011;168;48.872;9.226;2022-10-16T05:22:03;3.20;;;2.70;;
359;SDS011;168;48.872;9.226;2022-10-16T05:24:31;3.20;;;2.90;;
359;SDS011;168;48.872;9.226;2022-10-16T05:27:09;3.30;;;3.00;;
359;SDS011;168;48.872;9.226;2022-10-16T05:29:47;3.47;;;2.83;;
359;SDS011;168;48.872;9.226;2022-10-16T05:32:16;3.00;;;2.80;;
359;SDS011;168;48.872;9.226;2022-10-16T05:34:46;4.43;;;3.00;;
359;SDS011;168;48.872;9.226;2022-10-16T05:37:13;3.07;;;2.83;;
359;SDS011;168;48.872;9.226;2022-10-16T05:39:40;4.30;;;3.00;;
359;SDS011;168;48.872;9.226;2022-10-16T05:42:08;3.13;;;2.90;;
359;SDS011;168;48.872;9.226;2022-10-16T05:44:37;3.30;;;2.93;;
359;SDS011;168;48.872;9.226;2022-10-16T05:47:05;3.23;;;2.47;;
359;SDS011;168;48.872;9.226;2022-10-16T05:49:32;2.67;;;2.57;;
359;SDS011;168;48.872;9.226;2022-10-16T05:52:01;3.70;;;2.53;;
359;SDS011;168;48.872;9.226;2022-10-16T05:54:29;4.20;;;2.77;;
359;SDS011;168;48.872;9.226;2022-10-16T05:56:58;3.60;;;2.70;;
359;SDS011;168;48.872;9.226;2022-10-16T05:59:26;2.80;;;2.60;;
359;SDS011;168;48.872;9.226;2022-10-16T06:01:53;3.83;;;2.40;;
359;SDS011;168;48.872;9.226;2022-10-16T06:04:20;2.33;;;2.23;;
359;SDS011;168;48.872;9.226;2022-10-16T06:06:51;2.80;;;2.50;;
359;SDS011;168;48.872;9.226;2022-10-16T06:09:20;4.20;;;2.20;;
359;SDS011;168;48.872;9.226;2022-10-16T06:11:49;2.33;;;2.13;;
359;SDS011;168;48.872;9.226;2022-10-16T06:14:17;3.10;;;2.50;;
359;SDS011;168;48.872;9.226;2022-10-16T06:16:44;2.93;;;2.67;;
359;SDS011;168;48.872;9.226;2022-10-16T06:19:12;3.80;;;3.17;;
359;SDS011;168;48.872;9.226;2022-10-16T06:24:10;2.63;;;2.30;;
359;SDS011;168;48.872;9.226;2022-10-16T06:26:39;4.83;;;2.57;;
359;SDS011;168;48.872;9.226;2022-10-16T06:29:07;3.27;;;2.10;;
359;SDS011;168;48.872;9.226;2022-10-16T06:31:37;2.00;;;1.90;;
359;SDS011;168;48.872;9.226;2022-10-16T06:45:31;2.93;;;2.50;;
359;SDS011;168;48.872;9.226;2022-10-16T06:47:58;2.77;;;2.00;;
359;SDS011;168;48.872;9.226;2022-10-16T06:50:26;2.43;;;2.23;;
359;SDS011;168;48.872;9.226;2022-10-16T06:52:53;2.67;;;2.53;;
359;SDS011;168;48.872;9.226;2022-10-16T06:55:21;2.23;;;2.13;;
359;SDS011;168;48.872;9.226;2022-10-16T06:57:48;2.87;;;2.00;;
359;SDS011;168;48.872;9.226;2022-10-16T07:00:21;5.23;;;2.70;;
359;SDS011;168;48.872;9.226;2022-10-16T07:10:11;4.20;;;2.30;;
359;SDS011;168;48.872;9.226;2022-10-16T07:12:46;2.57;;;2.37;;
359;SDS011;168;48.872;9.226;2022-10-16T07:15:13;2.90;;;2.67;;
359;SDS011;168;48.872;9.226;2022-10-16T07:17:41;3.03;;;2.83;;
359;SDS011;168;48.872;9.226;2022-10-16T07:20:30;3.47;;;3.27;;
359;SDS011;168;48.872;9.226;2022-10-16T07:30:18;3.40;;;3.10;;
359;SDS011;168;48.872;9.226;2022-10-16T07:33:19;4.27;;;3.20;;
359;SDS011;168;48.872;9.226;2022-10-16T07:38:57;2.93;;;2.73;;
359;SDS011;168;48.872;9.226;2022-10-16T07:41:31;3.80;;;2.60;;
359;SDS011;168;48.872;9.226;2022-10-16T07:47:41;3.23;;;2.90;;
359;SDS011;168;48.872;9.226;2022-10-16T07:50:15;4.20;;;3.80;;
359;SDS011;168;48.872;9.226;2022-10-16T07:52:47;9.23;;;5.27;;
359;SDS011;168;48.872;9.226;2022-10-16T07:55:24;4.43;;;4.03;;
359;SDS011;168;48.872;9.226;2022-10-16T08:01:43;5.27;;;3.40;;
359;SDS011;168;48.872;9.226;2022-10-16T08:04:12;3.27;;;3.07;;
359;SDS011;168;48.872;9.226;2022-10-16T08:06:44;3.27;;;2.83;;
359;SDS011;168;48.872;9.226;2022-10-16T08:09:14;3.20;;;2.50;;
359;SDS011;168;48.872;9.226;2022-10-16T08:11:42;4.30;;;2.50;;
359;SDS011;168;48.872;9.226;2022-10-16T08:14:10;2.27;;;2.17;;
359;SDS011;168;48.872;9.226;2022-10-16T08:16:37;4.53;;;2.70;;
359;SDS011;168;48.872;9.226;2022-10-16T08:19:08;2.53;;;2.33;;
359;SDS011;168;48.872;9.226;2022-10-16T08:21:39;4.10;;;2.90;;
359;SDS011;168;48.872;9.226;2022-10-16T08:24:10;5.17;;;2.73;;
359;SDS011;168;48.872;9.226;2022-10-16T08:26:39;4.50;;;2.30;;
359;SDS011;168;48.872;9.226;2022-10-16T08:29:07;2.70;;;2.43;;
359;SDS011;168;48.872;9.226;2022-10-16T08:31:34;3.53;;;2.67;;
359;SDS011;168;48.872;9.226;2022-10-16T08:34:02;2.90;;;2.70;;
359;SDS011;168;48.872;9.226;2022-10-16T08:36:32;2.67;;;2.47;;
359;SDS011;168;48.872;9.226;2022-10-16T08:39:01;2.77;;;2.57;;
359;SDS011;168;48.872;9.226;2022-10-16T08:41:37;4.47;;;2.70;;
359;SDS011;168;48.872;9.226;2022-10-16T08:44:39;3.07;;;2.87;;
359;SDS011;168;48.872;9.226;2022-10-16T08:47:26;3.87;;;3.20;;
359;SDS011;168;48.872;9.226;2022-10-16T08:50:07;3.30;;;3.10;;
359;SDS011;168;48.872;9.226;2022-10-16T08:52:38;2.73;;;2.50;;
359;SDS011;168;48.872;9.226;2022-10-16T08:55:16;3.00;;;2.80;;
359;SDS011;168;48.872;9.226;2022-10-16T08:57:55;2.37;;;2.23;;
359;SDS011;168;48.872;9.226;2022-10-16T09:00:22;3.13;;;2.80;;
359;SDS011;168;48.872;9.226;2022-10-16T09:02:56;2.77;;;2.57;;
359;SDS011;168;48.872;9.226;2022-10-16T09:08:34;3.10;;;2.90;;
359;SDS011;168;48.872;9.226;2022-10-16T09:11:38;2.00;;;1.90;;
359;SDS011;168;48.872;9.226;2022-10-16T09:14:20;3.70;;;2.40;;
359;SDS011;168;48.872;9.226;2022-10-16T09:17:04;2.33;;;2.13;;
359;SDS011;168;48.872;9.226;2022-10-16T09:19:42;3.00;;;2.20;;
359;SDS011;168;48.872;9.226;2022-10-16T09:22:14;3.03;;;2.43;;
359;SDS011;168;48.872;9.226;2022-10-16T09:34:58;4.33;;;2.53;;
359;SDS011;168;48.872;9.226;2022-10-16T09:37:35;2.07;;;1.97;;
359;SDS011;168;48.872;9.226;2022-10-16T09:40:23;5.30;;;2.47;;
359;SDS011;168;48.872;9.226;2022-10-16T09:43:12;3.03;;;2.10;;
359;SDS011;168;48.872;9.226;2022-10-16T09:49:51;2.70;;;2.30;;
359;SDS011;168;48.872;9.226;2022-10-16T09:52:39;1.70;;;1.60;;
359;SDS011;168;48.872;9.226;2022-10-16T09:58:49;2.60;;;1.80;;
359;SDS011;168;48.872;9.226;2022-10-16T10:01:28;2.53;;;2.33;;
359;SDS011;168;48.872;9.226;2022-10-16T10:07:53;2.60;;;2.40;;
359;SDS011;168;48.872;9.226;2022-10-16T10:10:36;2.10;;;2.00;;
359;SDS011;168;48.872;9.226;2022-10-16T10:13:17;4.60;;;2.20;;
359;SDS011;168;48.872;9.226;2022-10-16T10:15:46;2.90;;;1.93;;
359;SDS011;168;48.872;9.226;2022-10-16T10:18:23;2.10;;;1.90;;
359;SDS011;168;48.872;9.226;2022-10-16T10:21:02;2.57;;;1.90;;
359;SDS011;168;48.872;9.226;2022-10-16T10:23:31;2.87;;;1.97;;
359;SDS011;168;48.872;9.226;2022-10-16T10:26:04;2.63;;;2.10;;
359;SDS011;168;48.872;9.226;2022-10-16T10:28:43;3.40;;;1.80;;
359;SDS011;168;48.872;9.226;2022-10-16T10:34:50;2.17;;;1.97;;
359;SDS011;168;48.872;9.226;2022-10-16T10:44:14;2.13;;;1.93;;
359;SDS011;168;48.872;9.226;2022-10-16T10:46:50;2.33;;;2.00;;
359;SDS011;168;48.872;9.226;2022-10-16T10:49:31;3.57;;;1.80;;
359;SDS011;168;48.872;9.226;2022-10-16T10:52:13;2.43;;;1.97;;
359;SDS011;168;48.872;9.226;2022-10-16T10:55:01;1.73;;;1.63;;
359;SDS011;168;48.872;9.226;2022-10-16T10:57:42;3.00;;;1.80;;
359;SDS011;168;48.872;9.226;2022-10-16T11:00:21;1.50;;;1.40;;
359;SDS011;168;48.872;9.226;2022-10-16T11:02:55;2.23;;;1.80;;
359;SDS011;168;48.872;9.226;2022-10-16T11:05:40;1.50;;;1.40;;
359;SDS011;168;48.872;9.226;2022-10-16T11:08:10;2.42;;;1.80;;
359;SDS011;168;48.872;9.226;2022-10-16T11:10:44;2.77;;;1.70;;
359;SDS011;168;48.872;9.226;2022-10-16T11:13:21;2.00;;;1.40;;
359;SDS011;168;48.872;9.226;2022-10-16T11:15:56;7.70;;;2.17;;
359;SDS011;168;48.872;9.226;2022-10-16T11:18:33;2.70;;;2.07;;
359;SDS011;168;48.872;9.226;2022-10-16T11:21:13;2.40;;;1.90;;
359;SDS011;168;48.872;9.226;2022-10-16T11:23:44;2.03;;;1.80;;
359;SDS011;168;48.872;9.226;2022-10-16T11:26:19;1.80;;;1.70;;
359;SDS011;168;48.872;9.226;2022-10-16T11:28:50;2.37;;;1.87;;
359;SDS011;168;48.872;9.226;2022-10-16T11:31:23;1.83;;;1.73;;
359;SDS011;168;48.872;9.226;2022-10-16T11:33:59;2.73;;;2.10;;
359;SDS011;168;48.872;9.226;2022-10-16T11:36:34;1.60;;;1.50;;
359;SDS011;168;48.872;9.226;2022-10-16T11:39:08;1.67;;;1.57;;
359;SDS011;168;48.872;9.226;2022-10-16T11:41:47;2.30;;;1.57;;
359;SDS011;168;48.872;9.226;2022-10-16T11:44:26;2.20;;;1.90;;
359;SDS011;168;48.872;9.226;2022-10-16T11:47:04;1.73;;;1.63;;
359;SDS011;168;48.872;9.226;2022-10-16T11:49:42;1.73;;;1.63;;
359;SDS011;168;48.872;9.226;2022-10-16T11:52:15;1.70;;;1.60;;
359;SDS011;168;48.872;9.226;2022-10-16T11:54:51;6.10;;;1.83;;
359;SDS011;168;48.872;9.226;2022-10-16T11:57:23;1.87;;;1.77;;
359;SDS011;168;48.872;9.226;2022-10-16T11:59:57;2.87;;;1.57;;
359;SDS011;168;48.872;9.226;2022-10-16T12:02:30;2.60;;;2.10;;
359;SDS011;168;48.872;9.226;2022-10-16T12:05:07;3.10;;;1.50;;
359;SDS011;168;48.872;9.226;2022-10-16T12:07:48;1.80;;;1.70;;
359;SDS011;168;48.872;9.226;2022-10-16T12:10:25;2.60;;;1.80;;
359;SDS011;168;48.872;9.226;2022-10-16T12:12:54;3.20;;;2.00;;
359;SDS011;168;48.872;9.226;2022-10-16T12:15:25;3.03;;;2.73;;
359;SDS011;168;48.872;9.226;2022-10-16T12:17:54;2.30;;;2.10;;
359;SDS011;168;48.872;9.226;2022-10-16T12:20:27;2.43;;;2.33;;
359;SDS011;168;48.872;9.226;2022-10-16T12:22:58;3.90;;;2.10;;
359;SDS011;168;48.872;9.226;2022-10-16T12:25:31;2.43;;;2.23;;
359;SDS011;168;48.872;9.226;2022-10-16T12:28:05;2.43;;;2.23;;
359;SDS011;168;48.872;9.226;2022-10-16T12:30:52;2.43;;;2.10;;
359;SDS011;168;48.872;9.226;2022-10-16T12:33:21;2.43;;;2.30;;
359;SDS011;168;48.872;9.226;2022-10-16T12:35:52;2.00;;;1.90;;
359;SDS011;168;48.872;9.226;2022-10-16T12:38:25;1.97;;;1.67;;
359;SDS011;168;48.872;9.226;2022-10-16T12:40:56;1.50;;;1.40;;
359;SDS011;168;48.872;9.226;2022-10-16T12:43:40;1.97;;;1.50;;
359;SDS011;168;48.872;9.226;2022-10-16T12:46:24;2.20;;;2.00;;
359;SDS011;168;48.872;9.226;2022-10-16T12:49:06;1.70;;;1.60;;
359;SDS011;168;48.872;9.226;2022-10-16T12:51:57;1.60;;;1.50;;
359;SDS011;168;48.872;9.226;2022-10-16T12:54:27;1.60;;;1.50;;
359;SDS011;168;48.872;9.226;2022-10-16T12:57:00;2.10;;;1.80;;
359;SDS011;168;48.872;9.226;2022-10-16T12:59:59;1.80;;;1.70;;
359;SDS011;168;48.872;9.226;2022-10-16T13:02:41;2.23;;;1.90;;
359;SDS011;168;48.872;9.226;2022-10-16T13:05:37;3.20;;;2.53;;
359;SDS011;168;48.872;9.226;2022-10-16T13:08:33;2.17;;;1.97;;
359;SDS011;168;48.872;9.226;2022-10-16T13:11:24;2.40;;;1.87;;
359;SDS011;168;48.872;9.226;2022-10-16T13:14:09;2.07;;;1.97;;
359;SDS011;168;48.872;9.226;2022-10-16T13:16:54;2.40;;;1.90;;
359;SDS011;168;48.872;9.226;2022-10-16T13:19:32;2.27;;;2.07;;
359;SDS011;168;48.872;9.226;2022-10-16T13:22:11;1.80;;;1.70;;
359;SDS011;168;48.872;9.226;2022-10-16T13:24:55;1.93;;;1.83;;
359;SDS011;168;48.872;9.226;2022-10-16T13:27:35;2.23;;;2.03;;
359;SDS011;168;48.872;9.226;2022-10-16T13:30:11;2.60;;;1.93;;
359;SDS011;168;48.872;9.226;2022-10-16T13:32:44;1.97;;;1.87;;
359;SDS011;168;48.872;9.226;2022-10-16T13:35:22;3.00;;;2.00;;
359;SDS011;168;48.872;9.226;2022-10-16T13:38:02;2.27;;;2.00;;
359;SDS011;168;48.872;9.226;2022-10-16T13:40:51;2.10;;;1.77;;
359;SDS011;168;48.872;9.226;2022-10-16T13:43:23;3.20;;;1.90;;
359;SDS011;168;48.872;9.226;2022-10-16T13:45:58;2.17;;;1.97;;
359;SDS011;168;48.872;9.226;2022-10-16T13:48:27;2.00;;;1.67;;
359;SDS011;168;48.872;9.226;2022-10-16T13:51:01;1.90;;;1.80;;
359;SDS011;168;48.872;9.226;2022-10-16T13:53:32;1.97;;;1.83;;
359;SDS011;168;48.872;9.226;2022-10-16T13:56:02;2.10;;;1.97;;
359;SDS011;168;48.872;9.226;2022-10-16T13:58:31;2.10;;;1.90;;
359;SDS011;168;48.872;9.226;2022-10-16T14:01:02;4.00;;;2.00;;
359;SDS011;168;48.872;9.226;2022-10-16T14:03:34;1.97;;;1.87;;
359;SDS011;168;48.872;9.226;2022-10-16T14:06:06;3.57;;;1.87;;
359;SDS011;168;48.872;9.226;2022-10-16T14:08:41;1.90;;;1.80;;
359;SDS011;168;48.872;9.226;2022-10-16T14:11:11;1.83;;;1.73;;
359;SDS011;168;48.872;9.226;2022-10-16T14:13:43;2.33;;;2.13;;
359;SDS011;168;48.872;9.226;2022-10-16T14:16:15;4.57;;;2.13;;
359;SDS011;168;48.872;9.226;2022-10-16T14:18:46;1.97;;;1.73;;
359;SDS011;168;48.872;9.226;2022-10-16T14:21:24;2.00;;;1.90;;
359;SDS011;168;48.872;9.226;2022-10-16T14:23:52;2.80;;;2.10;;
359;SDS011;168;48.872;9.226;2022-10-16T14:26:22;2.50;;;2.30;;
359;SDS011;168;48.872;9.226;2022-10-16T14:29:01;2.60;;;2.40;;
359;SDS011;168;48.872;9.226;2022-10-16T14:31:36;2.30;;;2.10;;
359;SDS011;168;48.872;9.226;2022-10-16T14:36:56;2.73;;;2.20;;
359;SDS011;168;48.872;9.226;2022-10-16T14:39:26;3.07;;;2.43;;
359;SDS011;168;48.872;9.226;2022-10-16T14:41:55;2.60;;;2.10;;
359;SDS011;168;48.872;9.226;2022-10-16T14:44:27;3.37;;;1.60;;
359;SDS011;168;48.872;9.226;2022-10-16T14:46:57;2.73;;;2.13;;
359;SDS011;168;48.872;9.226;2022-10-16T14:49:33;1.83;;;1.73;;
359;SDS011;168;48.872;9.226;2022-10-16T14:52:04;2.27;;;2.17;;
359;SDS011;168;48.872;9.226;2022-10-16T14:54:35;2.87;;;2.00;;
359;SDS011;168;48.872;9.226;2022-10-16T14:57:03;5.13;;;2.10;;
359;SDS011;168;48.872;9.226;2022-10-16T14:59:34;2.90;;;2.30;;
359;SDS011;168;48.872;9.226;2022-10-16T15:02:08;3.60;;;2.30;;
359;SDS011;168;48.872;9.226;2022-10-16T15:04:45;2.30;;;2.20;;
359;SDS011;168;48.872;9.226;2022-10-16T15:07:14;2.03;;;1.93;;
359;SDS011;168;48.872;9.226;2022-10-16T15:09:44;2.80;;;2.17;;
359;SDS011;168;48.872;9.226;2022-10-16T15:12:11;2.80;;;2.03;;
359;SDS011;168;48.872;9.226;2022-10-16T15:14:39;2.60;;;2.40;;
359;SDS011;168;48.872;9.226;2022-10-16T15:17:08;3.00;;;2.80;;
359;SDS011;168;48.872;9.226;2022-10-16T15:19:36;2.80;;;2.60;;
359;SDS011;168;48.872;9.226;2022-10-16T15:22:14;4.73;;;3.10;;
359;SDS011;168;48.872;9.226;2022-10-16T15:24:43;3.23;;;2.93;;
359;SDS011;168;48.872;9.226;2022-10-16T15:27:11;2.63;;;2.43;;
359;SDS011;168;48.872;9.226;2022-10-16T15:29:39;2.60;;;2.37;;
359;SDS011;168;48.872;9.226;2022-10-16T15:32:08;5.33;;;2.23;;
359;SDS011;168;48.872;9.226;2022-10-16T15:34:37;2.23;;;1.97;;
359;SDS011;168;48.872;9.226;2022-10-16T15:37:04;3.33;;;1.90;;
359;SDS011;168;48.872;9.226;2022-10-16T15:39:33;3.50;;;2.20;;
359;SDS011;168;48.872;9.226;2022-10-16T15:42:00;3.00;;;2.73;;
359;SDS011;168;48.872;9.226;2022-10-16T15:44:28;3.00;;;2.80;;
359;SDS011;168;48.872;9.226;2022-10-16T15:46:56;5.20;;;2.37;;
359;SDS011;168;48.872;9.226;2022-10-16T15:49:24;2.77;;;2.50;;
359;SDS011;168;48.872;9.226;2022-10-16T15:51:51;3.10;;;2.90;;
359;SDS011;168;48.872;9.226;2022-10-16T15:54:21;3.03;;;2.70;;
359;SDS011;168;48.872;9.226;2022-10-16T15:56:50;3.03;;;2.73;;
359;SDS011;168;48.872;9.226;2022-10-16T15:59:17;6.13;;;2.60;;
359;SDS011;168;48.872;9.226;2022-10-16T16:01:47;2.60;;;2.40;;
359;SDS011;168;48.872;9.226;2022-10-16T16:04:16;3.63;;;2.67;;
359;SDS011;168;48.872;9.226;2022-10-16T16:06:44;2.83;;;2.47;;
359;SDS011;168;48.872;9.226;2022-10-16T16:09:12;5.97;;;3.60;;
359;SDS011;168;48.872;9.226;2022-10-16T16:11:43;3.50;;;2.93;;
359;SDS011;168;48.872;9.226;2022-10-16T16:14:13;4.67;;;2.50;;
359;SDS011;168;48.872;9.226;2022-10-16T16:16:41;2.80;;;2.50;;
359;SDS011;168;48.872;9.226;2022-10-16T16:19:09;4.53;;;2.60;;
359;SDS011;168;48.872;9.226;2022-10-16T16:21:36;2.30;;;2.10;;
359;SDS011;168;48.872;9.226;2022-10-16T16:24:05;2.40;;;1.90;;
359;SDS011;168;48.872;9.226;2022-10-16T16:26:34;2.40;;;2.20;;
359;SDS011;168;48.872;9.226;2022-10-16T16:29:09;3.40;;;2.53;;
359;SDS011;168;48.872;9.226;2022-10-16T16:31:40;2.80;;;2.60;;
359;SDS011;168;48.872;9.226;2022-10-16T16:34:08;2.80;;;2.60;;
359;SDS011;168;48.872;9.226;2022-10-16T16:36:36;4.00;;;3.67;;
359;SDS011;168;48.872;9.226;2022-10-16T16:39:05;2.33;;;2.23;;
359;SDS011;168;48.872;9.226;2022-10-16T16:41:36;3.20;;;2.80;;
359;SDS011;168;48.872;9.226;2022-10-16T16:44:03;3.90;;;2.80;;
359;SDS011;168;48.872;9.226;2022-10-16T16:46:34;2.77;;;2.57;;
359;SDS011;168;48.872;9.226;2022-10-16T16:49:03;3.50;;;3.20;;
359;SDS011;168;48.872;9.226;2022-10-16T16:51:31;3.17;;;2.87;;
359;SDS011;168;48.872;9.226;2022-10-16T16:54:01;3.87;;;3.47;;
359;SDS011;168;48.872;9.226;2022-10-16T16:56:39;5.30;;;4.80;;
359;SDS011;168;48.872;9.226;2022-10-16T16:59:10;5.20;;;4.77;;
359;SDS011;168;48.872;9.226;2022-10-16T17:01:46;6.23;;;4.50;;
359;SDS011;168;48.872;9.226;2022-10-16T17:04:15;4.47;;;4.13;;
359;SDS011;168;48.872;9.226;2022-10-16T17:06:45;4.00;;;3.40;;
359;SDS011;168;48.872;9.226;2022-10-16T17:09:12;4.57;;;4.10;;
359;SDS011;168;48.872;9.226;2022-10-16T17:11:43;3.77;;;3.47;;
359;SDS011;168;48.872;9.226;2022-10-16T17:14:11;4.80;;;3.50;;
359;SDS011;168;48.872;9.226;2022-10-16T17:16:40;3.60;;;3.30;;
359;SDS011;168;48.872;9.226;2022-10-16T17:19:13;5.37;;;4.17;;
359;SDS011;168;48.872;9.226;2022-10-16T17:21:47;3.73;;;3.43;;
359;SDS011;168;48.872;9.226;2022-10-16T17:24:15;5.87;;;3.90;;
359;SDS011;168;48.872;9.226;2022-10-16T17:26:44;4.37;;;3.77;;
359;SDS011;168;48.872;9.226;2022-10-16T17:29:14;3.57;;;3.27;;
359;SDS011;168;48.872;9.226;2022-10-16T17:31:45;4.30;;;3.67;;